createdAt,value
2018-03-24T00:00:11.571Z,58.78
2018-03-24T00:01:55.486Z,58.77
2018-03-24T00:03:32.865Z,58.78
2018-03-24T00:05:10.954Z,58.79
2018-03-24T00:06:48.821Z,58.78
2018-03-24T00:08:26.950Z,58.76
2018-03-24T00:10:06.315Z,58.76
2018-03-24T00:11:44.513Z,58.76
2018-03-24T00:13:21.861Z,58.75
2018-03-24T00:15:01.191Z,58.75
2018-03-24T00:16:42.635Z,58.73
2018-03-24T00:18:22.328Z,58.74
2018-03-24T00:20:05.526Z,58.75
2018-03-24T00:21:46.146Z,58.75
2018-03-24T00:23:24.765Z,58.74
2018-03-24T00:25:05.339Z,58.72
2018-03-24T00:26:44.696Z,58.70
2018-03-24T00:28:22.562Z,58.69
2018-03-24T00:29:59.930Z,58.69
2018-03-24T00:31:38.037Z,58.67
2018-03-24T00:33:16.196Z,58.66
2018-03-24T00:34:53.637Z,58.67
2018-03-24T00:36:32.327Z,58.64
2018-03-24T00:38:09.700Z,58.65
2018-03-24T00:39:47.883Z,58.63
2018-03-24T00:41:25.597Z,58.64
2018-03-24T00:43:04.089Z,58.65
2018-03-24T00:44:41.542Z,58.65
2018-03-24T00:46:19.057Z,58.66
2018-03-24T00:47:56.974Z,58.65
2018-03-24T00:49:34.945Z,58.64
2018-03-24T00:51:12.668Z,58.64
2018-03-24T00:52:50.293Z,58.65
2018-03-24T00:54:27.717Z,58.63
2018-03-24T00:56:05.479Z,58.63
2018-03-24T00:57:43.067Z,58.61
2018-03-24T00:59:22.333Z,58.61
2018-03-24T01:01:04.827Z,58.61
2018-03-24T01:02:44.494Z,58.60
2018-03-24T01:04:22.253Z,58.60
2018-03-24T01:05:59.852Z,58.61
2018-03-24T01:07:38.794Z,58.61
2018-03-24T01:09:17.153Z,58.60
2018-03-24T01:10:55.626Z,58.61
2018-03-24T01:12:34.069Z,58.61
2018-03-24T01:14:12.196Z,58.62
2018-03-24T01:15:50.210Z,58.62
2018-03-24T01:17:27.871Z,58.64
2018-03-24T01:19:06.283Z,58.64
2018-03-24T01:20:49.453Z,58.64
2018-03-24T01:22:30.292Z,58.64
2018-03-24T01:24:09.260Z,58.64
2018-03-24T01:25:49.089Z,58.64
2018-03-24T01:27:27.706Z,58.66
2018-03-24T01:29:08.792Z,58.66
2018-03-24T01:30:46.590Z,58.65
2018-03-24T01:32:24.562Z,58.63
2018-03-24T01:34:02.327Z,58.64
2018-03-24T01:35:40.821Z,58.63
2018-03-24T01:37:23.799Z,58.63
2018-03-24T01:39:01.393Z,58.63
2018-03-24T01:40:39.191Z,58.63
2018-03-24T01:42:17.743Z,58.63
2018-03-24T01:43:55.812Z,58.62
2018-03-24T01:45:34.897Z,58.62
2018-03-24T01:47:16.174Z,58.63
2018-03-24T01:50:40.381Z,58.61
2018-03-24T01:52:18.016Z,58.60
2018-03-24T01:53:57.817Z,58.62
2018-03-24T01:55:37.242Z,58.63
2018-03-24T01:57:16.107Z,58.63
2018-03-24T01:58:54.804Z,58.63
2018-03-24T02:00:41.951Z,58.62
2018-03-24T02:02:20.997Z,58.64
2018-03-24T02:03:59.565Z,58.63
2018-03-24T02:05:37.624Z,58.62
2018-03-24T02:07:19.210Z,58.61
2018-03-24T02:09:01.146Z,58.60
2018-03-24T02:10:40.885Z,58.58
2018-03-24T02:12:19.251Z,58.57
2018-03-24T02:13:59.323Z,58.56
2018-03-24T02:15:38.648Z,58.56
2018-03-24T02:17:17.591Z,58.56
2018-03-24T02:18:56.059Z,58.57
2018-03-24T02:20:36.593Z,58.58
2018-03-24T02:22:15.600Z,58.61
2018-03-24T02:23:55.748Z,58.62
2018-03-24T02:25:34.601Z,58.62
2018-03-24T02:27:13.143Z,58.63
2018-03-24T02:28:51.906Z,58.62
2018-03-24T02:30:31.706Z,58.60
2018-03-24T02:32:13.247Z,58.60
2018-03-24T02:33:51.835Z,58.59
2018-03-24T02:35:42.513Z,58.58
2018-03-24T02:37:20.011Z,58.54
2018-03-24T02:38:57.456Z,58.54
2018-03-24T02:40:36.035Z,58.54
2018-03-24T02:42:13.981Z,58.53
2018-03-24T02:43:51.716Z,58.54
2018-03-24T02:45:29.250Z,58.52
2018-03-24T02:47:07.365Z,58.54
2018-03-24T02:48:44.945Z,58.52
2018-03-24T02:50:22.626Z,58.50
2018-03-24T02:52:00.484Z,58.50
2018-03-24T02:53:38.997Z,58.48
2018-03-24T02:55:16.636Z,58.50
2018-03-24T02:56:54.675Z,58.49
2018-03-24T02:58:33.097Z,58.50
2018-03-24T03:00:11.309Z,58.48
2018-03-24T03:01:49.891Z,58.47
2018-03-24T03:03:28.271Z,58.48
2018-03-24T03:05:06.023Z,58.47
2018-03-24T03:06:43.981Z,58.47
2018-03-24T03:08:21.190Z,58.46
2018-03-24T03:09:58.799Z,58.46
2018-03-24T03:11:36.703Z,58.46
2018-03-24T03:13:14.690Z,58.46
2018-03-24T03:14:52.103Z,58.46
2018-03-24T03:16:30.036Z,58.46
2018-03-24T03:18:07.496Z,58.45
2018-03-24T03:19:45.795Z,58.46
2018-03-24T03:21:23.757Z,58.43
2018-03-24T03:23:01.216Z,58.45
2018-03-24T03:24:38.973Z,58.45
2018-03-24T03:26:17.148Z,58.43
2018-03-24T03:27:54.974Z,58.43
2018-03-24T03:29:32.660Z,58.43
2018-03-24T03:31:10.371Z,58.45
2018-03-24T03:32:47.866Z,58.45
2018-03-24T03:34:24.970Z,58.46
2018-03-24T03:36:02.291Z,58.45
2018-03-24T03:37:39.767Z,58.47
2018-03-24T03:39:17.439Z,58.47
2018-03-24T03:40:55.017Z,58.47
2018-03-24T03:42:32.309Z,58.49
2018-03-24T03:44:09.486Z,58.50
2018-03-24T03:45:48.114Z,58.51
2018-03-24T03:47:25.513Z,58.53
2018-03-24T03:49:03.303Z,58.53
2018-03-24T03:50:40.769Z,58.53
2018-03-24T03:52:18.648Z,58.54
2018-03-24T03:53:56.107Z,58.56
2018-03-24T03:55:33.491Z,58.55
2018-03-24T03:57:10.978Z,58.57
2018-03-24T03:58:48.622Z,58.57
2018-03-24T04:00:26.117Z,58.58
2018-03-24T04:02:03.746Z,58.62
2018-03-24T04:03:41.683Z,58.58
2018-03-24T04:05:19.354Z,58.58
2018-03-24T04:06:56.607Z,58.59
2018-03-24T04:08:34.026Z,58.61
2018-03-24T04:10:12.047Z,58.62
2018-03-24T04:11:50.315Z,58.63
2018-03-24T04:13:27.740Z,58.64
2018-03-24T04:15:08.039Z,58.64
2018-03-24T04:16:45.148Z,58.66
2018-03-24T04:18:23.484Z,58.65
2018-03-24T04:20:01.562Z,58.66
2018-03-24T04:21:39.773Z,58.69
2018-03-24T04:23:16.809Z,58.70
2018-03-24T04:24:54.176Z,58.70
2018-03-24T04:26:31.270Z,58.71
2018-03-24T04:28:09.391Z,58.69
2018-03-24T04:29:46.540Z,58.80
2018-03-24T04:31:24.035Z,58.75
2018-03-24T04:33:01.067Z,58.80
2018-03-24T04:34:39.656Z,58.74
2018-03-24T04:36:16.863Z,58.74
2018-03-24T04:37:54.806Z,58.75
2018-03-24T04:39:31.786Z,58.75
2018-03-24T04:41:09.084Z,58.73
2018-03-24T04:42:46.446Z,58.72
2018-03-24T04:44:25.211Z,58.73
2018-03-24T04:46:08.037Z,58.73
2018-03-24T04:47:45.220Z,58.72
2018-03-24T04:49:22.421Z,58.73
2018-03-24T04:50:59.857Z,58.74
2018-03-24T04:52:38.090Z,58.74
2018-03-24T04:54:15.831Z,58.73
2018-03-24T04:55:53.221Z,58.73
2018-03-24T04:57:30.349Z,58.74
2018-03-24T04:59:07.141Z,58.74
2018-03-24T05:00:45.577Z,58.74
2018-03-24T05:02:23.934Z,58.75
2018-03-24T05:04:01.171Z,58.77
2018-03-24T05:05:38.299Z,58.78
2018-03-24T05:07:15.227Z,58.78
2018-03-24T05:08:54.366Z,58.79
2018-03-24T05:10:32.374Z,58.80
2018-03-24T05:12:09.687Z,58.80
2018-03-24T05:13:47.590Z,58.80
2018-03-24T05:15:25.219Z,58.81
2018-03-24T05:17:04.692Z,58.83
2018-03-24T05:18:42.240Z,58.84
2018-03-24T05:20:19.972Z,58.84
2018-03-24T05:21:58.224Z,58.86
2018-03-24T05:23:36.055Z,58.87
2018-03-24T05:25:13.203Z,58.88
2018-03-24T05:26:50.504Z,58.90
2018-03-24T05:28:28.353Z,58.92
2018-03-24T05:30:07.861Z,58.92
2018-03-24T05:31:45.242Z,58.92
2018-03-24T05:33:22.433Z,58.94
2018-03-24T05:35:00.870Z,58.94
2018-03-24T05:36:39.116Z,58.93
2018-03-24T05:38:16.553Z,58.96
2018-03-24T05:39:54.657Z,58.96
2018-03-24T05:41:32.209Z,58.97
2018-03-24T05:43:11.008Z,58.99
2018-03-24T05:44:48.988Z,59.00
2018-03-24T05:46:26.754Z,59.01
2018-03-24T05:48:06.552Z,59.04
2018-03-24T05:49:44.009Z,59.05
2018-03-24T05:51:23.179Z,59.08
2018-03-24T05:53:05.761Z,59.10
2018-03-24T05:54:44.154Z,59.13
2018-03-24T05:56:21.710Z,59.16
2018-03-24T05:58:03.977Z,59.21
2018-03-24T05:59:42.574Z,59.26
2018-03-24T06:01:20.703Z,59.30
2018-03-24T06:02:58.439Z,59.34
2018-03-24T06:04:36.756Z,59.39
2018-03-24T06:06:15.862Z,59.41
2018-03-24T06:07:53.567Z,59.44
2018-03-24T06:09:31.709Z,59.46
2018-03-24T06:11:09.753Z,59.43
2018-03-24T06:12:47.343Z,59.41
2018-03-24T06:14:27.565Z,59.40
2018-03-24T06:16:05.499Z,59.38
2018-03-24T06:17:43.581Z,59.38
2018-03-24T06:19:22.045Z,59.38
2018-03-24T06:21:00.978Z,59.38
2018-03-24T06:22:38.979Z,59.38
2018-03-24T06:24:16.844Z,59.41
2018-03-24T06:25:54.809Z,59.42
2018-03-24T06:27:33.378Z,59.44
2018-03-24T06:29:11.865Z,59.46
2018-03-24T06:30:49.760Z,59.49
2018-03-24T06:32:27.690Z,59.52
2018-03-24T06:34:06.254Z,59.54
2018-03-24T06:35:44.493Z,59.58
2018-03-24T06:37:22.375Z,59.59
2018-03-24T06:39:00.959Z,59.61
2018-03-24T06:40:39.414Z,59.64
2018-03-24T06:42:17.197Z,59.67
2018-03-24T06:43:55.270Z,59.72
2018-03-24T06:45:34.433Z,59.78
2018-03-24T06:47:12.758Z,59.83
2018-03-24T06:48:50.490Z,59.90
2018-03-24T06:50:29.426Z,59.92
2018-03-24T06:52:08.937Z,59.95
2018-03-24T06:53:48.614Z,59.97
2018-03-24T06:55:26.877Z,59.95
2018-03-24T06:57:04.671Z,59.98
2018-03-24T06:58:43.541Z,60.01
2018-03-24T07:00:21.780Z,60.03
2018-03-24T07:01:59.564Z,60.01
2018-03-24T07:03:37.210Z,60.00
2018-03-24T07:05:15.838Z,59.99
2018-03-24T07:06:54.165Z,60.02
2018-03-24T07:08:32.677Z,60.03
2018-03-24T07:10:11.221Z,60.06
2018-03-24T07:11:49.165Z,60.06
2018-03-24T07:13:27.289Z,60.10
2018-03-24T07:15:07.562Z,60.14
2018-03-24T07:16:45.521Z,60.17
2018-03-24T07:18:23.326Z,60.19
2018-03-24T07:20:01.496Z,60.18
2018-03-24T07:21:39.238Z,60.19
2018-03-24T07:23:18.164Z,60.19
2018-03-24T07:24:55.574Z,60.21
2018-03-24T07:26:33.828Z,60.26
2018-03-24T07:28:11.128Z,60.32
2018-03-24T07:29:48.519Z,60.36
2018-03-24T07:31:26.022Z,60.38
2018-03-24T07:33:03.912Z,60.41
2018-03-24T07:34:41.284Z,60.46
2018-03-24T07:36:19.596Z,60.52
2018-03-24T07:37:56.899Z,60.53
2018-03-24T07:39:35.527Z,60.57
2018-03-24T07:41:13.269Z,60.63
2018-03-24T07:42:50.691Z,60.67
2018-03-24T07:44:28.259Z,60.71
2018-03-24T07:46:06.044Z,60.79
2018-03-24T07:47:44.182Z,60.82
2018-03-24T07:49:21.338Z,60.82
2018-03-24T07:50:58.502Z,60.81
2018-03-24T07:52:36.290Z,60.80
2018-03-24T07:54:13.354Z,60.79
2018-03-24T07:55:50.622Z,60.80
2018-03-24T07:57:29.696Z,60.80
2018-03-24T07:59:07.256Z,60.79
2018-03-24T08:00:45.442Z,60.80
2018-03-24T08:02:22.833Z,60.79
2018-03-24T08:04:00.325Z,60.78
2018-03-24T08:05:38.231Z,60.77
2018-03-24T08:07:15.591Z,60.76
2018-03-24T08:08:53.479Z,60.75
2018-03-24T08:10:32.479Z,60.76
2018-03-24T08:12:10.301Z,60.76
2018-03-24T08:13:48.167Z,60.75
2018-03-24T08:15:25.577Z,60.77
2018-03-24T08:17:02.977Z,60.81
2018-03-24T08:18:42.375Z,60.83
2018-03-24T08:20:19.609Z,60.85
2018-03-24T08:21:56.930Z,60.88
2018-03-24T08:23:34.481Z,60.89
2018-03-24T08:25:12.042Z,60.92
2018-03-24T08:26:49.804Z,60.94
2018-03-24T08:28:26.948Z,60.95
2018-03-24T08:30:06.260Z,60.99
2018-03-24T08:31:43.853Z,61.01
2018-03-24T08:33:21.768Z,61.03
2018-03-24T08:34:59.433Z,61.03
2018-03-24T08:36:37.691Z,61.05
2018-03-24T08:38:14.910Z,61.07
2018-03-24T08:39:52.087Z,61.09
2018-03-24T08:41:30.482Z,61.13
2018-03-24T08:43:08.443Z,61.18
2018-03-24T08:44:46.168Z,61.27
2018-03-24T08:46:23.288Z,61.34
2018-03-24T08:48:00.758Z,61.39
2018-03-24T08:49:37.833Z,61.45
2018-03-24T08:51:15.552Z,61.47
2018-03-24T08:52:54.093Z,61.48
2018-03-24T08:54:31.982Z,61.51
2018-03-24T08:56:09.561Z,61.54
2018-03-24T08:57:47.543Z,61.58
2018-03-24T08:59:24.514Z,61.61
2018-03-24T09:01:01.879Z,61.63
2018-03-24T09:02:39.101Z,61.66
2018-03-24T09:04:17.587Z,61.70
2018-03-24T09:05:55.511Z,61.71
2018-03-24T09:07:33.108Z,61.72
2018-03-24T09:09:10.779Z,61.72
2018-03-24T09:10:48.472Z,61.73
2018-03-24T09:12:36.844Z,61.74
2018-03-24T09:14:14.126Z,61.74
2018-03-24T09:15:51.354Z,61.73
2018-03-24T09:17:29.103Z,61.73
2018-03-24T09:19:07.500Z,61.72
2018-03-24T09:20:45.058Z,61.74
2018-03-24T09:22:22.507Z,61.73
2018-03-24T09:23:59.797Z,61.73
2018-03-24T09:25:37.549Z,61.69
2018-03-24T09:27:15.088Z,61.67
2018-03-24T09:28:52.163Z,61.69
2018-03-24T09:30:31.244Z,61.71
2018-03-24T09:32:08.752Z,61.75
2018-03-24T09:33:46.016Z,61.76
2018-03-24T09:35:23.070Z,61.75
2018-03-24T09:37:00.865Z,61.73
2018-03-24T09:38:38.418Z,61.72
2018-03-24T09:40:16.208Z,61.70
2018-03-24T09:41:53.981Z,61.63
2018-03-24T09:43:31.901Z,61.56
2018-03-24T09:45:09.895Z,61.50
2018-03-24T09:46:47.137Z,61.51
2018-03-24T09:48:25.043Z,61.54
2018-03-24T09:50:02.749Z,61.58
2018-03-24T09:51:41.941Z,61.63
2018-03-24T09:53:21.258Z,61.67
2018-03-24T09:54:59.145Z,61.66
2018-03-24T09:56:40.728Z,61.67
2018-03-24T09:58:19.290Z,61.69
2018-03-24T10:00:23.210Z,61.72
2018-03-24T10:02:06.266Z,61.75
2018-03-24T10:03:44.506Z,61.73
2018-03-24T10:05:22.131Z,61.62
2018-03-24T10:06:59.736Z,61.55
2018-03-24T10:08:37.831Z,61.50
2018-03-24T10:10:15.367Z,61.49
2018-03-24T10:11:53.992Z,61.45
2018-03-24T10:13:31.348Z,61.42
2018-03-24T10:15:10.474Z,61.38
2018-03-24T10:16:47.875Z,61.35
2018-03-24T10:18:26.055Z,61.33
2018-03-24T10:20:03.959Z,61.33
2018-03-24T10:21:42.727Z,61.34
2018-03-24T10:23:21.447Z,61.36
2018-03-24T10:24:58.959Z,61.39
2018-03-24T10:26:37.221Z,61.40
2018-03-24T10:28:15.960Z,61.41
2018-03-24T10:29:57.040Z,61.42
2018-03-24T10:31:37.482Z,61.42
2018-03-24T10:33:14.839Z,61.37
2018-03-24T10:34:57.754Z,61.33
2018-03-24T10:37:37.187Z,61.32
2018-03-24T10:39:14.811Z,61.25
2018-03-24T10:40:52.980Z,61.23
2018-03-24T10:42:31.447Z,61.22
2018-03-24T10:44:09.078Z,61.22
2018-03-24T10:45:46.964Z,61.21
2018-03-24T10:47:25.349Z,61.21
2018-03-24T10:49:03.075Z,61.24
2018-03-24T10:50:43.212Z,61.21
2018-03-24T10:52:21.740Z,61.14
2018-03-24T10:54:03.660Z,61.12
2018-03-24T10:55:45.960Z,61.10
2018-03-24T10:57:23.457Z,61.09
2018-03-24T10:59:00.659Z,61.10
2018-03-24T11:00:42.829Z,61.10
2018-03-24T11:02:22.469Z,61.11
2018-03-24T11:04:00.413Z,61.14
2018-03-24T11:05:38.385Z,61.18
2018-03-24T11:07:18.297Z,61.17
2018-03-24T11:08:56.929Z,61.15
2018-03-24T11:10:40.675Z,61.12
2018-03-24T11:12:20.206Z,61.06
2018-03-24T11:13:59.662Z,61.00
2018-03-24T11:15:38.245Z,60.97
2018-03-24T11:17:18.215Z,60.97
2018-03-24T11:18:57.681Z,60.97
2018-03-24T11:22:11.781Z,61.04
2018-03-24T11:23:49.630Z,61.10
2018-03-24T11:25:26.636Z,61.09
2018-03-24T11:27:20.089Z,61.06
2018-03-24T11:28:57.518Z,61.04
2018-03-24T11:30:35.738Z,61.05
2018-03-24T11:32:14.274Z,61.07
2018-03-24T11:33:52.191Z,61.10
2018-03-24T11:35:30.878Z,61.13
2018-03-24T11:37:08.478Z,61.14
2018-03-24T11:38:45.970Z,61.16
2018-03-24T11:40:24.316Z,61.14
2018-03-24T11:42:03.068Z,61.13
2018-03-24T11:43:40.602Z,61.12
2018-03-24T11:47:55.027Z,60.99
2018-03-24T11:49:33.252Z,60.92
2018-03-24T11:51:13.604Z,60.85
2018-03-24T11:52:50.990Z,60.82
2018-03-24T11:54:41.350Z,60.80
2018-03-24T11:56:18.736Z,60.80
2018-03-24T11:57:56.377Z,60.83
2018-03-24T12:01:15.535Z,60.78
2018-03-24T12:02:54.132Z,60.72
2018-03-24T12:04:31.580Z,60.71
2018-03-24T12:06:08.625Z,60.71
2018-03-24T12:07:45.982Z,60.71
2018-03-24T12:09:24.317Z,60.72
2018-03-24T12:11:02.671Z,60.74
2018-03-24T12:12:40.013Z,60.77
2018-03-24T12:14:17.239Z,60.78
2018-03-24T12:15:55.141Z,60.78
2018-03-24T12:17:33.552Z,60.79
2018-03-24T12:19:11.077Z,60.79
2018-03-24T12:20:49.180Z,60.78
2018-03-24T12:22:26.687Z,60.77
2018-03-24T12:24:04.330Z,60.75
2018-03-24T12:25:41.665Z,60.74
2018-03-24T12:27:18.916Z,60.71
2018-03-24T12:28:56.678Z,60.70
2018-03-24T12:30:34.640Z,60.65
2018-03-24T12:32:11.873Z,60.61
2018-03-24T12:33:50.169Z,60.53
2018-03-24T12:35:27.435Z,60.46
2018-03-24T12:37:05.069Z,60.41
2018-03-24T12:38:43.382Z,60.36
2018-03-24T12:40:21.251Z,60.31
2018-03-24T12:41:58.878Z,60.24
2018-03-24T12:43:36.202Z,60.23
2018-03-24T12:45:15.155Z,60.22
2018-03-24T12:46:54.449Z,60.20
2018-03-24T12:48:31.568Z,60.17
2018-03-24T12:50:08.627Z,60.11
2018-03-24T12:51:46.930Z,60.05
2018-03-24T12:53:23.874Z,60.00
2018-03-24T12:55:00.677Z,59.97
2018-03-24T12:56:38.878Z,59.93
2018-03-24T12:58:16.919Z,59.91
2018-03-24T12:59:54.047Z,59.89
2018-03-24T13:01:31.114Z,59.88
2018-03-24T13:03:09.339Z,59.85
2018-03-24T13:04:46.991Z,59.78
2018-03-24T13:06:25.047Z,59.73
2018-03-24T13:08:04.219Z,59.71
2018-03-24T13:09:44.162Z,59.69
2018-03-24T13:11:23.171Z,59.69
2018-03-24T13:13:00.553Z,59.67
2018-03-24T13:14:37.732Z,59.65
2018-03-24T13:16:15.646Z,59.62
2018-03-24T13:17:52.672Z,59.61
2018-03-24T13:19:29.692Z,59.58
2018-03-24T13:21:06.854Z,59.55
2018-03-24T13:22:47.574Z,59.53
2018-03-24T13:24:25.456Z,59.51
2018-03-24T13:26:04.016Z,59.50
2018-03-24T13:27:41.263Z,59.50
2018-03-24T13:29:18.803Z,59.49
2018-03-24T13:30:57.609Z,59.46
2018-03-24T13:32:34.368Z,59.41
2018-03-24T13:34:12.489Z,59.38
2018-03-24T13:35:50.021Z,59.34
2018-03-24T13:37:28.103Z,59.30
2018-03-24T13:39:05.546Z,59.29
2018-03-24T13:40:43.058Z,59.25
2018-03-24T13:42:20.373Z,59.24
2018-03-24T13:43:57.434Z,59.22
2018-03-24T13:45:34.728Z,59.20
2018-03-24T13:47:11.816Z,59.18
2018-03-24T13:48:49.554Z,59.15
2018-03-24T13:50:26.908Z,59.11
2018-03-24T13:52:04.985Z,59.09
2018-03-24T13:53:42.813Z,59.07
2018-03-24T13:55:20.292Z,59.04
2018-03-24T13:57:02.444Z,59.03
2018-03-24T13:58:39.661Z,59.01
2018-03-24T14:00:19.455Z,58.98
2018-03-24T14:01:57.852Z,58.98
2018-03-24T14:03:36.530Z,58.95
2018-03-24T14:05:14.093Z,58.93
2018-03-24T14:06:52.938Z,58.90
2018-03-24T14:08:30.851Z,58.88
2018-03-24T14:10:12.177Z,58.87
2018-03-24T14:11:53.209Z,58.83
2018-03-24T14:13:32.463Z,58.81
2018-03-24T14:15:16.665Z,58.78
2018-03-24T14:16:55.560Z,58.76
2018-03-24T14:18:33.356Z,58.75
2018-03-24T14:20:14.649Z,58.76
2018-03-24T14:21:54.660Z,58.73
2018-03-24T14:23:32.206Z,58.72
2018-03-24T14:25:11.105Z,58.71
2018-03-24T14:26:51.464Z,58.67
2018-03-24T14:28:28.955Z,58.64
2018-03-24T14:30:07.283Z,58.66
2018-03-24T14:31:44.917Z,58.64
2018-03-24T14:33:25.234Z,58.65
2018-03-24T14:35:08.669Z,58.66
2018-03-24T14:36:47.417Z,58.65
2018-03-24T14:38:24.516Z,58.56
2018-03-24T14:40:04.191Z,58.49
2018-03-24T14:41:42.499Z,58.46
2018-03-24T14:43:20.320Z,58.44
2018-03-24T14:44:58.300Z,58.41
2018-03-24T14:46:35.438Z,58.35
2018-03-24T14:48:16.220Z,58.33
2018-03-24T14:49:54.102Z,58.30
2018-03-24T14:51:31.142Z,58.25
2018-03-24T14:53:08.353Z,58.23
2018-03-24T14:54:46.090Z,58.19
2018-03-24T14:56:23.197Z,58.15
2018-03-24T14:58:01.441Z,58.13
2018-03-24T14:59:38.856Z,58.10
2018-03-24T15:01:16.579Z,58.11
2018-03-24T15:02:54.628Z,58.10
2018-03-24T15:04:37.899Z,58.07
2018-03-24T15:06:15.233Z,58.02
2018-03-24T15:07:54.334Z,57.97
2018-03-24T15:09:31.472Z,57.95
2018-03-24T15:11:08.803Z,57.91
2018-03-24T15:12:46.272Z,57.88
2018-03-24T15:14:25.280Z,57.86
2018-03-24T15:16:05.416Z,57.84
2018-03-24T15:17:43.380Z,57.83
2018-03-24T15:19:21.254Z,57.77
2018-03-24T15:20:59.839Z,57.72
2018-03-24T15:22:37.072Z,57.68
2018-03-24T15:24:14.115Z,57.65
2018-03-24T15:25:52.770Z,57.65
2018-03-24T15:27:30.299Z,57.62
2018-03-24T15:29:22.182Z,57.61
2018-03-24T15:31:22.111Z,57.57
2018-03-24T15:33:13.259Z,57.55
2018-03-24T15:36:10.020Z,57.51
2018-03-24T15:37:47.355Z,57.46
2018-03-24T15:39:24.781Z,57.43
2018-03-24T15:41:02.021Z,57.41
2018-03-24T15:42:39.053Z,57.39
2018-03-24T15:44:17.041Z,57.37
2018-03-24T15:45:54.627Z,57.34
2018-03-24T15:47:33.548Z,57.31
2018-03-24T15:49:11.616Z,57.31
2018-03-24T15:50:49.321Z,57.29
2018-03-24T15:52:27.676Z,57.28
2018-03-24T15:54:06.464Z,57.26
2018-03-24T15:55:44.380Z,57.23
2018-03-24T15:57:21.641Z,57.21
2018-03-24T15:59:04.174Z,57.18
2018-03-24T16:00:41.373Z,57.16
2018-03-24T16:02:18.567Z,57.12
2018-03-24T16:03:55.942Z,57.10
2018-03-24T16:05:33.370Z,57.07
2018-03-24T16:07:10.548Z,57.04
2018-03-24T16:08:48.512Z,57.03
2018-03-24T16:10:25.913Z,56.99
2018-03-24T16:12:04.751Z,56.99
2018-03-24T16:13:42.158Z,56.95
2018-03-24T16:15:20.013Z,56.93
2018-03-24T16:16:57.548Z,56.94
2018-03-24T16:18:35.216Z,56.92
2018-03-24T16:20:12.347Z,56.92
2018-03-24T16:21:50.134Z,56.91
2018-03-24T16:23:27.275Z,56.85
2018-03-24T16:25:04.913Z,56.80
2018-03-24T16:26:42.979Z,56.74
2018-03-24T16:28:20.057Z,56.69
2018-03-24T16:29:58.431Z,56.64
2018-03-24T16:31:36.370Z,56.61
2018-03-24T16:33:14.408Z,56.58
2018-03-24T16:34:51.928Z,56.55
2018-03-24T16:36:29.723Z,56.51
2018-03-24T16:38:07.539Z,56.48
2018-03-24T16:39:45.303Z,56.45
2018-03-24T16:41:22.954Z,56.41
2018-03-24T16:43:01.388Z,56.39
2018-03-24T16:44:38.921Z,56.38
2018-03-24T16:46:16.377Z,56.34
2018-03-24T16:47:54.405Z,56.32
2018-03-24T16:49:33.593Z,56.31
2018-03-24T16:51:11.143Z,56.29
2018-03-24T16:52:48.168Z,56.26
2018-03-24T16:54:25.297Z,56.25
2018-03-24T16:56:02.789Z,56.23
2018-03-24T16:57:40.788Z,56.18
2018-03-24T16:59:18.988Z,56.17
2018-03-24T17:00:56.875Z,56.13
2018-03-24T17:02:35.536Z,56.10
2018-03-24T17:04:13.437Z,56.09
2018-03-24T17:05:50.591Z,56.06
2018-03-24T17:07:28.782Z,56.04
2018-03-24T17:09:06.748Z,56.02
2018-03-24T17:10:45.005Z,55.98
2018-03-24T17:12:22.941Z,55.93
2018-03-24T17:14:00.208Z,55.92
2018-03-24T17:15:37.655Z,55.91
2018-03-24T17:17:15.163Z,55.88
2018-03-24T17:18:53.147Z,55.86
2018-03-24T17:20:30.419Z,55.83
2018-03-24T17:22:09.329Z,55.81
2018-03-24T17:23:46.898Z,55.79
2018-03-24T17:25:24.062Z,55.77
2018-03-24T17:27:01.281Z,55.74
2018-03-24T17:28:38.326Z,55.71
2018-03-24T17:30:19.300Z,55.70
2018-03-24T17:31:57.089Z,55.69
2018-03-24T17:33:34.868Z,55.67
2018-03-24T17:35:12.065Z,55.65
2018-03-24T17:36:52.361Z,55.64
2018-03-24T17:38:29.714Z,55.61
2018-03-24T17:40:08.142Z,55.58
2018-03-24T17:41:46.294Z,55.55
2018-03-24T17:43:24.157Z,55.53
2018-03-24T17:45:01.495Z,55.51
2018-03-24T17:46:39.897Z,55.51
2018-03-24T17:48:17.481Z,55.50
2018-03-24T17:49:56.455Z,55.49
2018-03-24T17:51:33.858Z,55.47
2018-03-24T17:53:10.873Z,55.48
2018-03-24T17:54:48.058Z,55.47
2018-03-24T17:56:25.483Z,55.45
2018-03-24T17:58:02.413Z,55.44
2018-03-24T17:59:41.323Z,55.43
2018-03-24T18:01:19.085Z,55.41
2018-03-24T18:02:56.823Z,55.40
2018-03-24T18:04:33.817Z,55.37
2018-03-24T18:06:10.847Z,55.36
2018-03-24T18:07:48.024Z,55.34
2018-03-24T18:09:25.525Z,55.33
2018-03-24T18:11:03.570Z,55.32
2018-03-24T18:12:40.544Z,55.31
2018-03-24T18:14:17.428Z,55.27
2018-03-24T18:15:55.376Z,55.23
2018-03-24T18:17:32.496Z,55.19
2018-03-24T18:19:10.335Z,55.16
2018-03-24T18:20:47.338Z,55.14
2018-03-24T18:22:25.619Z,55.11
2018-03-24T18:24:02.824Z,55.10
2018-03-24T18:25:40.115Z,55.08
2018-03-24T18:27:17.280Z,55.05
2018-03-24T18:28:56.277Z,55.02
2018-03-24T18:30:33.908Z,54.99
2018-03-24T18:32:11.508Z,54.96
2018-03-24T18:33:49.300Z,54.93
2018-03-24T18:35:27.969Z,54.91
2018-03-24T18:37:05.031Z,54.89
2018-03-24T18:38:42.792Z,54.86
2018-03-24T18:40:19.951Z,54.83
2018-03-24T18:41:59.217Z,54.82
2018-03-24T18:43:37.600Z,54.81
2018-03-24T18:45:26.275Z,54.80
2018-03-24T18:47:03.330Z,54.77
2018-03-24T18:48:40.584Z,54.74
2018-03-24T18:50:18.476Z,54.72
2018-03-24T18:51:56.842Z,54.71
2018-03-24T18:53:35.770Z,54.67
2018-03-24T18:55:13.092Z,54.66
2018-03-24T18:56:50.428Z,54.66
2018-03-24T18:58:27.745Z,54.63
2018-03-24T19:00:07.316Z,54.59
2018-03-24T19:01:45.779Z,54.54
2018-03-24T19:03:23.498Z,54.49
2018-03-24T19:05:01.109Z,54.44
2018-03-24T19:06:38.585Z,54.40
2018-03-24T19:08:15.663Z,54.37
2018-03-24T19:09:53.746Z,54.33
2018-03-24T19:11:30.801Z,54.30
2018-03-24T19:13:08.224Z,54.27
2018-03-24T19:14:47.641Z,54.25
2018-03-24T19:16:25.848Z,54.22
2018-03-24T19:18:02.767Z,54.17
2018-03-24T19:19:40.237Z,54.12
2018-03-24T19:21:17.296Z,54.11
2018-03-24T19:22:54.931Z,54.07
2018-03-24T19:24:32.875Z,54.05
2018-03-24T19:26:11.138Z,54.01
2018-03-24T19:27:48.270Z,54.00
2018-03-24T19:29:25.600Z,53.99
2018-03-24T19:31:02.976Z,53.99
2018-03-24T19:32:41.681Z,53.99
2018-03-24T19:34:19.206Z,53.95
2018-03-24T19:35:57.153Z,53.93
2018-03-24T19:37:34.436Z,53.89
2018-03-24T19:39:12.914Z,53.87
2018-03-24T19:40:50.917Z,53.84
2018-03-24T19:42:29.028Z,53.79
2018-03-24T19:44:06.046Z,53.78
2018-03-24T19:45:44.843Z,53.75
2018-03-24T19:47:24.083Z,53.73
2018-03-24T19:49:01.618Z,53.71
2018-03-24T19:50:38.608Z,53.71
2018-03-24T19:52:16.359Z,53.70
2018-03-24T19:53:54.788Z,53.69
2018-03-24T19:55:32.552Z,53.68
2018-03-24T19:57:09.685Z,53.68
2018-03-24T19:58:47.140Z,53.65
2018-03-24T20:00:27.063Z,53.63
2018-03-24T20:02:05.306Z,53.63
2018-03-24T20:03:43.211Z,53.63
2018-03-24T20:05:20.640Z,53.62
2018-03-24T20:06:58.340Z,53.62
2018-03-24T20:08:36.043Z,53.62
2018-03-24T20:10:13.866Z,53.62
2018-03-24T20:11:59.764Z,53.62
2018-03-24T20:13:38.175Z,53.63
2018-03-24T20:15:18.164Z,53.63
2018-03-24T20:16:56.463Z,53.63
2018-03-24T20:18:35.565Z,53.61
2018-03-24T20:20:12.513Z,53.62
2018-03-24T20:21:50.989Z,53.63
2018-03-24T20:23:28.380Z,53.64
2018-03-24T20:25:06.107Z,53.66
2018-03-24T20:26:44.890Z,53.67
2018-03-24T20:28:24.368Z,53.70
2018-03-24T20:30:02.616Z,53.70
2018-03-24T20:31:40.330Z,53.72
2018-03-24T20:33:17.132Z,53.72
2018-03-24T20:34:54.783Z,53.72
2018-03-24T20:36:33.119Z,53.71
2018-03-24T20:38:11.066Z,53.71
2018-03-24T20:39:47.878Z,53.70
2018-03-24T20:41:25.609Z,53.70
2018-03-24T20:43:02.913Z,53.69
2018-03-24T20:44:40.244Z,53.68
2018-03-24T20:46:18.510Z,53.69
2018-03-24T20:47:56.093Z,53.69
2018-03-24T20:49:33.012Z,53.68
2018-03-24T20:51:10.440Z,53.67
2018-03-24T20:52:47.267Z,53.67
2018-03-24T20:54:24.182Z,53.66
2018-03-24T20:56:01.798Z,53.66
2018-03-24T20:57:39.170Z,53.64
2018-03-24T20:59:17.106Z,53.63
2018-03-24T21:00:54.566Z,53.61
2018-03-24T21:02:31.401Z,53.59
2018-03-24T21:04:08.770Z,53.59
2018-03-24T21:05:45.727Z,53.57
2018-03-24T21:07:22.531Z,53.55
2018-03-24T21:08:59.927Z,53.54
2018-03-24T21:10:37.289Z,53.52
2018-03-24T21:12:15.042Z,53.52
2018-03-24T21:13:52.086Z,53.50
2018-03-24T21:15:30.548Z,53.49